Nearby METAR Reports

 

K6B9 - Skaneateles, New York, USA
Distance from station: SE 7mi, 12km
Updated: Tue, 27-Feb-2024 4:35am EST
Clear
Clear
 Wind from ESE
Wind: ESE 5 mph , 7 km/h
Temperature: 46°F , 8°C
Wind Chill: 44°F , 7°C
Dew Point: 32°F , 0°C
Humidity: 57%
Barometer: 29.84 inHg , 1010.5 hPa
Clouds: Clear
Visibility: 10 miles , 16 km
2024/02/27 09:35 K6B9 270935Z AUTO 12004KT 10SM CLR 08/00 A2984 RMK AO2
KSYR - Syracuse, New York, USA
Distance from station: ENE 24mi, 38km
Updated: Tue, 27-Feb-2024 3:54am EST
Few Clouds
Few Clouds
 Wind from NE
Wind: NE 6 mph , 9 km/h
Temperature: 36°F , 2°C
Wind Chill: 31°F , -1°C
Dew Point: 27°F , -3°C
Humidity: 70%
Barometer: 29.87 inHg , 1011.5 hPa
Clouds: Few Clouds
Visibility: 10 miles , 16 km
Cloud details: Few Clouds 25000 ft
2024/02/27 08:54 KSYR 270854Z 04005KT 10SM FEW250 02/M03 A2987 RMK AO2 SLP113 T00171028 56010
 
KFZY - Fulton, New York, USA
Distance from station: NNE 26mi, 41km
Updated: Tue, 27-Feb-2024 3:54am EST
Clear
Clear
 Wind from varies
Wind: varies 5 mph , 7 km/h
Temperature: 41°F , 5°C
Wind Chill: 38°F , 3°C
Dew Point: 30°F , -1°C
Humidity: 66%
Barometer: 29.85 inHg , 1010.8 hPa
Clouds: Clear
Visibility: 10 miles , 16 km
2024/02/27 08:54 KFZY 270854Z AUTO VRB04KT 10SM CLR 05/M01 A2985 RMK AO2 SLP111 T00501011 56010
KN03 - Cortland, New York, USA
Distance from station: SSE 32mi, 51km
Updated: Tue, 27-Feb-2024 4:35am EST
Clear
Clear
 Wind from calm
Wind: Calm
Temperature: 34°F , 1°C
Dew Point: 30°F , -1°C
Humidity: 87%
Barometer: 29.89 inHg , 1012.2 hPa
Clouds: Clear
Visibility: 10 miles , 16 km
2024/02/27 09:35 KN03 270935Z AUTO 00000KT 10SM CLR 01/M01 A2989 RMK AO2
 
KSDC - Williamson/Sodus, New York, USA
Distance from station: WNW 34mi, 54km
Updated: Tue, 27-Feb-2024 4:35am EST
Clear
Clear
 Wind from SSE
Wind: SSE 7 mph , 11 km/h
Temperature: 43°F , 6°C
Wind Chill: 39°F , 4°C
Dew Point: 32°F , 0°C
Humidity: 66%
Barometer: 29.81 inHg , 1009.5 hPa
Clouds: Clear
Visibility: 10 miles , 16 km
2024/02/27 09:35 KSDC 270935Z AUTO 16006KT 10SM CLR 06/00 A2981 RMK AO2
KPEO - Penn Yan, New York, USA
Distance from station: SW 35mi, 57km
Updated: Tue, 27-Feb-2024 3:53am EST
Clear
Clear
 Wind from SSW
Wind: SSW 14 mph , 22 km/h
Temperature: 45°F , 7°C
Wind Chill: 39°F , 4°C
Dew Point: 30°F , -1°C
Humidity: 57%
Barometer: 29.85 inHg , 1010.8 hPa
Clouds: Clear
Visibility: 10 miles , 16 km
2024/02/27 08:53 KPEO 270853Z AUTO 21012KT 10SM CLR 07/M01 A2985 RMK AO2 SLP110 T00671006 56010
 
KITH - Ithaca/Tompkins, New York, USA
Distance from station: S 37mi, 59km
Updated: Tue, 27-Feb-2024 3:56am EST
Clear
Clear
 Wind from SSE
Wind: SSE 15 mph , 24 km/h
Temperature: 45°F , 7°C
Wind Chill: 38°F , 3°C
Dew Point: 32°F , 0°C
Humidity: 61%
Barometer: 29.88 inHg , 1011.9 hPa
Clouds: Clear
Visibility: 10 miles , 16 km
2024/02/27 08:56 KITH 270856Z AUTO 16013KT 10SM CLR 07/00 A2988 RMK AO2 SLP120 T00720000 56009
KVGC - Hamilton Municip, New York, USA
Distance from station: E 50mi, 80km
Updated: Tue, 27-Feb-2024 4:35am EST

 Wind from SE
Wind: SE 8 mph , 13 km/h
Temperature: 37°F , 3°C
Wind Chill: 31°F , -1°C
Dew Point: 30°F , -1°C
Humidity: 75%
Barometer: 29.91 inHg , 1012.9 hPa
Visibility: 10 miles , 16 km
2024/02/27 09:35 KVGC 270935Z AUTO 14007KT 10SM 03/M01 A2991 RMK AO2